sensor_id;sensor_type;location;lat;lon;timestamp;P1;durP1;ratioP1;P2;durP2;ratioP2
13455;SDS011;6800;50.940;6.940;2024-01-11T00:02:00;33.47;;;25.03;;
13455;SDS011;6800;50.940;6.940;2024-01-11T00:06:02;37.57;;;26.23;;
13455;SDS011;6800;50.940;6.940;2024-01-11T00:10:05;32.50;;;24.93;;
13455;SDS011;6800;50.940;6.940;2024-01-11T00:14:09;32.03;;;23.60;;
13455;SDS011;6800;50.940;6.940;2024-01-11T00:18:10;30.50;;;22.20;;
13455;SDS011;6800;50.940;6.940;2024-01-11T00:22:14;30.33;;;23.67;;
13455;SDS011;6800;50.940;6.940;2024-01-11T00:26:16;33.17;;;22.73;;
13455;SDS011;6800;50.940;6.940;2024-01-11T00:30:20;31.53;;;22.00;;
13455;SDS011;6800;50.940;6.940;2024-01-11T00:34:25;32.70;;;23.67;;
13455;SDS011;6800;50.940;6.940;2024-01-11T00:38:28;30.17;;;23.10;;
13455;SDS011;6800;50.940;6.940;2024-01-11T00:42:32;28.83;;;22.37;;
13455;SDS011;6800;50.940;6.940;2024-01-11T00:46:36;33.53;;;22.67;;
13455;SDS011;6800;50.940;6.940;2024-01-11T00:50:39;33.17;;;22.70;;
13455;SDS011;6800;50.940;6.940;2024-01-11T00:54:41;33.07;;;23.83;;
13455;SDS011;6800;50.940;6.940;2024-01-11T00:58:42;30.53;;;22.43;;
13455;SDS011;6800;50.940;6.940;2024-01-11T01:02:44;32.37;;;23.47;;
13455;SDS011;6800;50.940;6.940;2024-01-11T01:06:48;28.20;;;21.83;;
13455;SDS011;6800;50.940;6.940;2024-01-11T01:10:49;31.87;;;23.43;;
13455;SDS011;6800;50.940;6.940;2024-01-11T01:14:51;32.53;;;21.90;;
13455;SDS011;6800;50.940;6.940;2024-01-11T01:18:52;30.50;;;22.00;;
13455;SDS011;6800;50.940;6.940;2024-01-11T01:22:57;30.53;;;23.13;;
13455;SDS011;6800;50.940;6.940;2024-01-11T01:26:59;30.27;;;22.87;;
13455;SDS011;6800;50.940;6.940;2024-01-11T01:31:02;32.67;;;24.27;;
13455;SDS011;6800;50.940;6.940;2024-01-11T01:35:03;33.33;;;25.43;;
13455;SDS011;6800;50.940;6.940;2024-01-11T01:39:06;31.23;;;24.53;;
13455;SDS011;6800;50.940;6.940;2024-01-11T01:43:07;36.33;;;26.47;;
13455;SDS011;6800;50.940;6.940;2024-01-11T01:47:16;37.53;;;26.23;;
13455;SDS011;6800;50.940;6.940;2024-01-11T01:51:19;40.30;;;28.53;;
13455;SDS011;6800;50.940;6.940;2024-01-11T01:55:21;39.90;;;27.57;;
13455;SDS011;6800;50.940;6.940;2024-01-11T01:59:24;37.37;;;27.23;;
13455;SDS011;6800;50.940;6.940;2024-01-11T02:03:27;40.47;;;28.77;;
13455;SDS011;6800;50.940;6.940;2024-01-11T02:07:34;40.23;;;28.23;;
13455;SDS011;6800;50.940;6.940;2024-01-11T02:11:36;37.60;;;28.30;;
13455;SDS011;6800;50.940;6.940;2024-01-11T02:15:39;41.80;;;28.90;;
13455;SDS011;6800;50.940;6.940;2024-01-11T02:19:41;40.07;;;28.40;;
13455;SDS011;6800;50.940;6.940;2024-01-11T02:27:57;42.00;;;29.40;;
13455;SDS011;6800;50.940;6.940;2024-01-11T02:31:59;36.20;;;27.60;;
13455;SDS011;6800;50.940;6.940;2024-01-11T02:36:04;36.37;;;27.77;;
13455;SDS011;6800;50.940;6.940;2024-01-11T02:40:07;37.23;;;26.13;;
13455;SDS011;6800;50.940;6.940;2024-01-11T02:44:10;40.57;;;28.97;;
13455;SDS011;6800;50.940;6.940;2024-01-11T02:48:12;40.17;;;28.70;;
13455;SDS011;6800;50.940;6.940;2024-01-11T02:52:13;40.33;;;27.73;;
13455;SDS011;6800;50.940;6.940;2024-01-11T02:56:15;38.70;;;27.50;;
13455;SDS011;6800;50.940;6.940;2024-01-11T03:00:18;39.57;;;28.43;;
13455;SDS011;6800;50.940;6.940;2024-01-11T03:04:19;44.27;;;29.20;;
13455;SDS011;6800;50.940;6.940;2024-01-11T03:08:23;37.90;;;26.57;;
13455;SDS011;6800;50.940;6.940;2024-01-11T03:12:25;37.60;;;26.83;;
13455;SDS011;6800;50.940;6.940;2024-01-11T03:16:27;37.23;;;28.17;;
13455;SDS011;6800;50.940;6.940;2024-01-11T03:20:28;39.67;;;28.20;;
13455;SDS011;6800;50.940;6.940;2024-01-11T03:24:30;37.30;;;27.10;;
13455;SDS011;6800;50.940;6.940;2024-01-11T03:28:32;35.17;;;26.50;;
13455;SDS011;6800;50.940;6.940;2024-01-11T03:32:33;38.27;;;25.83;;
13455;SDS011;6800;50.940;6.940;2024-01-11T03:36:35;33.27;;;24.63;;
13455;SDS011;6800;50.940;6.940;2024-01-11T03:40:38;34.40;;;25.27;;
13455;SDS011;6800;50.940;6.940;2024-01-11T03:44:45;35.43;;;24.97;;
13455;SDS011;6800;50.940;6.940;2024-01-11T03:48:47;35.37;;;25.80;;
13455;SDS011;6800;50.940;6.940;2024-01-11T03:52:49;31.93;;;25.83;;
13455;SDS011;6800;50.940;6.940;2024-01-11T03:56:51;36.43;;;25.60;;
13455;SDS011;6800;50.940;6.940;2024-01-11T04:00:53;36.47;;;25.50;;
13455;SDS011;6800;50.940;6.940;2024-01-11T04:04:55;40.50;;;26.37;;
13455;SDS011;6800;50.940;6.940;2024-01-11T04:08:57;37.83;;;26.03;;
13455;SDS011;6800;50.940;6.940;2024-01-11T04:12:59;36.90;;;24.50;;
13455;SDS011;6800;50.940;6.940;2024-01-11T04:17:01;35.43;;;25.00;;
13455;SDS011;6800;50.940;6.940;2024-01-11T04:21:02;37.40;;;26.23;;
13455;SDS011;6800;50.940;6.940;2024-01-11T04:25:04;38.93;;;25.97;;
13455;SDS011;6800;50.940;6.940;2024-01-11T04:29:06;34.93;;;25.40;;
13455;SDS011;6800;50.940;6.940;2024-01-11T04:33:08;34.70;;;25.57;;
13455;SDS011;6800;50.940;6.940;2024-01-11T04:37:10;35.00;;;26.53;;
13455;SDS011;6800;50.940;6.940;2024-01-11T04:41:11;34.20;;;25.60;;
13455;SDS011;6800;50.940;6.940;2024-01-11T04:45:15;36.53;;;25.63;;
13455;SDS011;6800;50.940;6.940;2024-01-11T04:49:17;42.03;;;27.13;;
13455;SDS011;6800;50.940;6.940;2024-01-11T04:53:19;38.27;;;26.47;;
13455;SDS011;6800;50.940;6.940;2024-01-11T04:57:21;36.77;;;27.63;;
13455;SDS011;6800;50.940;6.940;2024-01-11T05:01:24;37.17;;;25.60;;
13455;SDS011;6800;50.940;6.940;2024-01-11T05:05:29;36.07;;;27.13;;
13455;SDS011;6800;50.940;6.940;2024-01-11T05:09:32;37.40;;;26.30;;
13455;SDS011;6800;50.940;6.940;2024-01-11T05:13:33;37.87;;;26.87;;
13455;SDS011;6800;50.940;6.940;2024-01-11T05:17:36;37.37;;;25.87;;
13455;SDS011;6800;50.940;6.940;2024-01-11T05:21:38;37.17;;;26.30;;
13455;SDS011;6800;50.940;6.940;2024-01-11T05:25:43;35.93;;;26.47;;
13455;SDS011;6800;50.940;6.940;2024-01-11T05:29:50;36.00;;;25.50;;
13455;SDS011;6800;50.940;6.940;2024-01-11T05:33:53;38.33;;;26.60;;
13455;SDS011;6800;50.940;6.940;2024-01-11T05:37:55;38.33;;;27.20;;
13455;SDS011;6800;50.940;6.940;2024-01-11T05:41:57;36.17;;;26.20;;
13455;SDS011;6800;50.940;6.940;2024-01-11T05:45:59;40.27;;;26.57;;
13455;SDS011;6800;50.940;6.940;2024-01-11T05:50:01;38.50;;;26.13;;
13455;SDS011;6800;50.940;6.940;2024-01-11T05:54:02;37.43;;;25.97;;
13455;SDS011;6800;50.940;6.940;2024-01-11T05:58:05;36.60;;;25.80;;
13455;SDS011;6800;50.940;6.940;2024-01-11T06:02:07;38.43;;;28.70;;
13455;SDS011;6800;50.940;6.940;2024-01-11T06:06:15;35.67;;;26.10;;
13455;SDS011;6800;50.940;6.940;2024-01-11T06:10:19;40.30;;;27.00;;
13455;SDS011;6800;50.940;6.940;2024-01-11T06:14:20;37.33;;;27.70;;
13455;SDS011;6800;50.940;6.940;2024-01-11T06:18:23;38.97;;;27.70;;
13455;SDS011;6800;50.940;6.940;2024-01-11T06:22:26;39.87;;;28.00;;
13455;SDS011;6800;50.940;6.940;2024-01-11T06:26:28;42.87;;;27.73;;
13455;SDS011;6800;50.940;6.940;2024-01-11T06:30:29;37.07;;;25.57;;
13455;SDS011;6800;50.940;6.940;2024-01-11T06:34:38;37.57;;;26.17;;
13455;SDS011;6800;50.940;6.940;2024-01-11T06:38:42;41.40;;;29.10;;
13455;SDS011;6800;50.940;6.940;2024-01-11T06:42:44;33.50;;;25.30;;
13455;SDS011;6800;50.940;6.940;2024-01-11T06:46:46;40.80;;;25.93;;
13455;SDS011;6800;50.940;6.940;2024-01-11T06:50:48;41.40;;;29.33;;
13455;SDS011;6800;50.940;6.940;2024-01-11T06:54:52;45.37;;;28.40;;
13455;SDS011;6800;50.940;6.940;2024-01-11T06:58:54;36.53;;;28.77;;
13455;SDS011;6800;50.940;6.940;2024-01-11T07:02:56;39.80;;;29.20;;
13455;SDS011;6800;50.940;6.940;2024-01-11T07:07:01;46.13;;;29.20;;
13455;SDS011;6800;50.940;6.940;2024-01-11T07:11:03;42.00;;;29.50;;
13455;SDS011;6800;50.940;6.940;2024-01-11T07:15:05;44.37;;;30.20;;
13455;SDS011;6800;50.940;6.940;2024-01-11T07:19:11;42.50;;;29.80;;
13455;SDS011;6800;50.940;6.940;2024-01-11T07:23:14;42.23;;;29.70;;
13455;SDS011;6800;50.940;6.940;2024-01-11T07:27:16;41.80;;;28.87;;
13455;SDS011;6800;50.940;6.940;2024-01-11T07:31:18;46.33;;;30.00;;
13455;SDS011;6800;50.940;6.940;2024-01-11T07:35:19;43.13;;;30.37;;
13455;SDS011;6800;50.940;6.940;2024-01-11T07:39:22;45.23;;;30.53;;
13455;SDS011;6800;50.940;6.940;2024-01-11T07:43:24;47.17;;;31.57;;
13455;SDS011;6800;50.940;6.940;2024-01-11T07:47:38;48.03;;;30.67;;
13455;SDS011;6800;50.940;6.940;2024-01-11T07:51:43;43.80;;;29.70;;
13455;SDS011;6800;50.940;6.940;2024-01-11T07:55:45;45.43;;;30.20;;
13455;SDS011;6800;50.940;6.940;2024-01-11T07:59:49;48.30;;;29.07;;
13455;SDS011;6800;50.940;6.940;2024-01-11T08:03:50;46.63;;;31.00;;
13455;SDS011;6800;50.940;6.940;2024-01-11T08:07:55;58.40;;;32.70;;
13455;SDS011;6800;50.940;6.940;2024-01-11T08:11:57;49.27;;;32.50;;
13455;SDS011;6800;50.940;6.940;2024-01-11T08:15:58;41.53;;;30.03;;
13455;SDS011;6800;50.940;6.940;2024-01-11T08:20:03;54.00;;;34.10;;
13455;SDS011;6800;50.940;6.940;2024-01-11T08:24:05;45.53;;;31.37;;
13455;SDS011;6800;50.940;6.940;2024-01-11T08:28:07;51.87;;;32.87;;
13455;SDS011;6800;50.940;6.940;2024-01-11T08:32:09;50.13;;;31.07;;
13455;SDS011;6800;50.940;6.940;2024-01-11T08:36:31;44.67;;;32.63;;
13455;SDS011;6800;50.940;6.940;2024-01-11T08:40:35;49.17;;;32.90;;
13455;SDS011;6800;50.940;6.940;2024-01-11T08:44:42;45.57;;;31.97;;
13455;SDS011;6800;50.940;6.940;2024-01-11T08:48:45;53.17;;;31.87;;
13455;SDS011;6800;50.940;6.940;2024-01-11T08:52:47;46.43;;;32.87;;
13455;SDS011;6800;50.940;6.940;2024-01-11T08:56:48;51.00;;;33.23;;
13455;SDS011;6800;50.940;6.940;2024-01-11T09:00:50;47.27;;;32.83;;
13455;SDS011;6800;50.940;6.940;2024-01-11T09:04:52;49.73;;;32.33;;
13455;SDS011;6800;50.940;6.940;2024-01-11T09:08:54;45.43;;;31.40;;
13455;SDS011;6800;50.940;6.940;2024-01-11T09:12:56;48.70;;;31.97;;
13455;SDS011;6800;50.940;6.940;2024-01-11T09:16:58;39.73;;;30.03;;
13455;SDS011;6800;50.940;6.940;2024-01-11T09:21:00;43.40;;;29.57;;
13455;SDS011;6800;50.940;6.940;2024-01-11T09:25:01;41.90;;;29.33;;
13455;SDS011;6800;50.940;6.940;2024-01-11T09:29:03;47.30;;;31.50;;
13455;SDS011;6800;50.940;6.940;2024-01-11T09:33:07;44.03;;;29.47;;
13455;SDS011;6800;50.940;6.940;2024-01-11T09:37:09;42.17;;;29.40;;
13455;SDS011;6800;50.940;6.940;2024-01-11T09:41:12;41.40;;;28.43;;
13455;SDS011;6800;50.940;6.940;2024-01-11T09:45:16;44.77;;;29.00;;
13455;SDS011;6800;50.940;6.940;2024-01-11T09:49:18;40.23;;;27.90;;
13455;SDS011;6800;50.940;6.940;2024-01-11T09:53:25;43.73;;;30.53;;
13455;SDS011;6800;50.940;6.940;2024-01-11T09:57:29;44.60;;;29.33;;
13455;SDS011;6800;50.940;6.940;2024-01-11T10:01:33;44.33;;;29.27;;
13455;SDS011;6800;50.940;6.940;2024-01-11T10:05:38;40.00;;;29.33;;
13455;SDS011;6800;50.940;6.940;2024-01-11T10:09:44;48.00;;;27.63;;
13455;SDS011;6800;50.940;6.940;2024-01-11T10:13:45;38.07;;;29.00;;
13455;SDS011;6800;50.940;6.940;2024-01-11T10:17:49;34.33;;;28.97;;
13455;SDS011;6800;50.940;6.940;2024-01-11T10:21:51;48.40;;;29.50;;
13455;SDS011;6800;50.940;6.940;2024-01-11T10:25:53;37.20;;;28.13;;
13455;SDS011;6800;50.940;6.940;2024-01-11T10:29:54;37.40;;;27.67;;
13455;SDS011;6800;50.940;6.940;2024-01-11T10:33:57;44.50;;;28.90;;
13455;SDS011;6800;50.940;6.940;2024-01-11T10:37:59;63.83;;;32.13;;
13455;SDS011;6800;50.940;6.940;2024-01-11T10:42:07;43.83;;;29.07;;
13455;SDS011;6800;50.940;6.940;2024-01-11T10:46:10;37.77;;;28.87;;
13455;SDS011;6800;50.940;6.940;2024-01-11T10:50:13;60.23;;;31.10;;
13455;SDS011;6800;50.940;6.940;2024-01-11T10:54:17;37.73;;;27.80;;
13455;SDS011;6800;50.940;6.940;2024-01-11T10:58:25;37.77;;;28.93;;
13455;SDS011;6800;50.940;6.940;2024-01-11T11:02:29;36.17;;;28.17;;
13455;SDS011;6800;50.940;6.940;2024-01-11T11:06:32;37.70;;;28.30;;
13455;SDS011;6800;50.940;6.940;2024-01-11T11:10:36;40.57;;;28.97;;
13455;SDS011;6800;50.940;6.940;2024-01-11T11:14:40;38.87;;;29.63;;
13455;SDS011;6800;50.940;6.940;2024-01-11T11:18:43;51.90;;;30.20;;
13455;SDS011;6800;50.940;6.940;2024-01-11T11:22:49;42.67;;;30.33;;
13455;SDS011;6800;50.940;6.940;2024-01-11T11:27:06;63.10;;;32.87;;
13455;SDS011;6800;50.940;6.940;2024-01-11T11:31:10;39.87;;;30.97;;
13455;SDS011;6800;50.940;6.940;2024-01-11T11:35:16;47.20;;;28.63;;
13455;SDS011;6800;50.940;6.940;2024-01-11T11:39:17;59.97;;;30.73;;
13455;SDS011;6800;50.940;6.940;2024-01-11T11:43:21;41.90;;;28.20;;
13455;SDS011;6800;50.940;6.940;2024-01-11T11:47:23;36.03;;;28.30;;
13455;SDS011;6800;50.940;6.940;2024-01-11T11:51:26;50.73;;;30.70;;
13455;SDS011;6800;50.940;6.940;2024-01-11T11:55:29;36.67;;;27.93;;
13455;SDS011;6800;50.940;6.940;2024-01-11T11:59:32;42.30;;;29.00;;
13455;SDS011;6800;50.940;6.940;2024-01-11T12:03:40;36.90;;;28.33;;
13455;SDS011;6800;50.940;6.940;2024-01-11T12:07:43;47.17;;;30.23;;
13455;SDS011;6800;50.940;6.940;2024-01-11T12:11:49;55.77;;;30.93;;
13455;SDS011;6800;50.940;6.940;2024-01-11T12:16:11;59.10;;;30.90;;
13455;SDS011;6800;50.940;6.940;2024-01-11T12:20:13;43.07;;;29.07;;
13455;SDS011;6800;50.940;6.940;2024-01-11T12:24:16;42.87;;;29.97;;
13455;SDS011;6800;50.940;6.940;2024-01-11T12:28:18;55.67;;;36.97;;
13455;SDS011;6800;50.940;6.940;2024-01-11T12:32:19;51.83;;;36.53;;
13455;SDS011;6800;50.940;6.940;2024-01-11T12:36:23;51.10;;;35.07;;
13455;SDS011;6800;50.940;6.940;2024-01-11T12:40:25;43.13;;;30.70;;
13455;SDS011;6800;50.940;6.940;2024-01-11T12:44:31;43.13;;;30.27;;
13455;SDS011;6800;50.940;6.940;2024-01-11T12:48:34;46.77;;;32.40;;
13455;SDS011;6800;50.940;6.940;2024-01-11T12:52:38;46.77;;;32.63;;
13455;SDS011;6800;50.940;6.940;2024-01-11T12:56:43;44.30;;;32.20;;
13455;SDS011;6800;50.940;6.940;2024-01-11T13:00:47;67.57;;;33.57;;
13455;SDS011;6800;50.940;6.940;2024-01-11T13:04:50;50.70;;;32.57;;
13455;SDS011;6800;50.940;6.940;2024-01-11T13:08:52;43.80;;;31.20;;
13455;SDS011;6800;50.940;6.940;2024-01-11T13:12:54;42.13;;;29.37;;
13455;SDS011;6800;50.940;6.940;2024-01-11T13:17:03;46.77;;;31.23;;
13455;SDS011;6800;50.940;6.940;2024-01-11T13:21:05;43.27;;;31.53;;
13455;SDS011;6800;50.940;6.940;2024-01-11T13:25:11;59.77;;;33.07;;
13455;SDS011;6800;50.940;6.940;2024-01-11T13:29:14;68.93;;;32.80;;
13455;SDS011;6800;50.940;6.940;2024-01-11T13:33:16;62.93;;;34.13;;
13455;SDS011;6800;50.940;6.940;2024-01-11T13:37:20;61.87;;;33.27;;
13455;SDS011;6800;50.940;6.940;2024-01-11T13:41:22;62.43;;;33.97;;
13455;SDS011;6800;50.940;6.940;2024-01-11T13:45:24;58.70;;;31.67;;
13455;SDS011;6800;50.940;6.940;2024-01-11T13:49:26;55.40;;;32.50;;
13455;SDS011;6800;50.940;6.940;2024-01-11T13:53:28;49.33;;;32.47;;
13455;SDS011;6800;50.940;6.940;2024-01-11T13:57:30;47.07;;;33.53;;
13455;SDS011;6800;50.940;6.940;2024-01-11T14:01:32;44.73;;;32.20;;
13455;SDS011;6800;50.940;6.940;2024-01-11T14:05:33;43.93;;;31.37;;
13455;SDS011;6800;50.940;6.940;2024-01-11T14:09:35;49.40;;;31.43;;
13455;SDS011;6800;50.940;6.940;2024-01-11T14:13:36;47.10;;;30.93;;
13455;SDS011;6800;50.940;6.940;2024-01-11T14:17:38;46.67;;;30.57;;
13455;SDS011;6800;50.940;6.940;2024-01-11T14:21:41;50.30;;;29.00;;
13455;SDS011;6800;50.940;6.940;2024-01-11T14:25:45;42.67;;;30.20;;
13455;SDS011;6800;50.940;6.940;2024-01-11T14:29:47;42.37;;;30.53;;
13455;SDS011;6800;50.940;6.940;2024-01-11T14:33:49;41.93;;;29.73;;
13455;SDS011;6800;50.940;6.940;2024-01-11T14:37:54;46.97;;;33.60;;
13455;SDS011;6800;50.940;6.940;2024-01-11T14:41:57;45.37;;;29.30;;
13455;SDS011;6800;50.940;6.940;2024-01-11T14:45:59;42.43;;;30.50;;
13455;SDS011;6800;50.940;6.940;2024-01-11T14:50:02;41.13;;;29.00;;
13455;SDS011;6800;50.940;6.940;2024-01-11T14:54:14;45.17;;;30.00;;
13455;SDS011;6800;50.940;6.940;2024-01-11T14:58:16;42.47;;;29.97;;
13455;SDS011;6800;50.940;6.940;2024-01-11T15:02:20;40.93;;;29.57;;
13455;SDS011;6800;50.940;6.940;2024-01-11T15:06:22;43.60;;;30.20;;
13455;SDS011;6800;50.940;6.940;2024-01-11T15:10:26;42.17;;;28.43;;
13455;SDS011;6800;50.940;6.940;2024-01-11T15:14:29;38.07;;;28.33;;
13455;SDS011;6800;50.940;6.940;2024-01-11T15:18:32;38.40;;;26.90;;
13455;SDS011;6800;50.940;6.940;2024-01-11T15:22:35;40.27;;;27.97;;
13455;SDS011;6800;50.940;6.940;2024-01-11T15:26:37;38.70;;;27.17;;
13455;SDS011;6800;50.940;6.940;2024-01-11T15:30:39;43.63;;;27.97;;
13455;SDS011;6800;50.940;6.940;2024-01-11T15:34:42;40.23;;;29.47;;
13455;SDS011;6800;50.940;6.940;2024-01-11T15:38:44;38.70;;;29.10;;
13455;SDS011;6800;50.940;6.940;2024-01-11T15:42:46;43.03;;;28.33;;
13455;SDS011;6800;50.940;6.940;2024-01-11T15:46:48;44.83;;;30.83;;
13455;SDS011;6800;50.940;6.940;2024-01-11T15:50:51;42.00;;;30.70;;
13455;SDS011;6800;50.940;6.940;2024-01-11T15:54:56;44.20;;;30.93;;
13455;SDS011;6800;50.940;6.940;2024-01-11T15:58:59;45.43;;;30.23;;
13455;SDS011;6800;50.940;6.940;2024-01-11T16:03:02;43.63;;;29.93;;
13455;SDS011;6800;50.940;6.940;2024-01-11T16:07:05;44.23;;;31.50;;
13455;SDS011;6800;50.940;6.940;2024-01-11T16:11:09;40.20;;;28.93;;
13455;SDS011;6800;50.940;6.940;2024-01-11T16:15:12;39.77;;;28.30;;
13455;SDS011;6800;50.940;6.940;2024-01-11T16:19:15;39.47;;;26.53;;
13455;SDS011;6800;50.940;6.940;2024-01-11T16:23:18;36.70;;;26.97;;
13455;SDS011;6800;50.940;6.940;2024-01-11T16:27:20;36.40;;;27.23;;
13455;SDS011;6800;50.940;6.940;2024-01-11T16:31:21;38.10;;;28.37;;
13455;SDS011;6800;50.940;6.940;2024-01-11T16:35:26;38.40;;;27.27;;
13455;SDS011;6800;50.940;6.940;2024-01-11T16:39:28;39.40;;;26.10;;
13455;SDS011;6800;50.940;6.940;2024-01-11T16:43:32;34.33;;;25.47;;
13455;SDS011;6800;50.940;6.940;2024-01-11T16:47:34;37.03;;;24.93;;
13455;SDS011;6800;50.940;6.940;2024-01-11T16:51:44;34.50;;;25.00;;
13455;SDS011;6800;50.940;6.940;2024-01-11T16:55:50;35.37;;;24.47;;
13455;SDS011;6800;50.940;6.940;2024-01-11T16:59:57;32.40;;;23.77;;
13455;SDS011;6800;50.940;6.940;2024-01-11T17:03:58;32.87;;;23.37;;
13455;SDS011;6800;50.940;6.940;2024-01-11T17:08:01;31.83;;;23.20;;
13455;SDS011;6800;50.940;6.940;2024-01-11T17:12:12;35.60;;;23.87;;
13455;SDS011;6800;50.940;6.940;2024-01-11T17:16:17;32.87;;;24.17;;
13455;SDS011;6800;50.940;6.940;2024-01-11T17:20:21;31.07;;;23.30;;
13455;SDS011;6800;50.940;6.940;2024-01-11T17:24:23;32.90;;;23.33;;
13455;SDS011;6800;50.940;6.940;2024-01-11T17:28:25;40.90;;;22.53;;
13455;SDS011;6800;50.940;6.940;2024-01-11T17:32:29;31.53;;;23.10;;
13455;SDS011;6800;50.940;6.940;2024-01-11T17:36:31;30.23;;;23.20;;
13455;SDS011;6800;50.940;6.940;2024-01-11T17:40:32;30.70;;;22.83;;
13455;SDS011;6800;50.940;6.940;2024-01-11T17:44:35;30.97;;;24.03;;
13455;SDS011;6800;50.940;6.940;2024-01-11T17:48:38;31.83;;;23.90;;
13455;SDS011;6800;50.940;6.940;2024-01-11T17:52:44;34.23;;;25.03;;
13455;SDS011;6800;50.940;6.940;2024-01-11T17:56:50;32.87;;;24.17;;
13455;SDS011;6800;50.940;6.940;2024-01-11T18:00:52;35.10;;;25.30;;
13455;SDS011;6800;50.940;6.940;2024-01-11T18:04:54;34.67;;;23.50;;
13455;SDS011;6800;50.940;6.940;2024-01-11T18:08:55;33.20;;;23.47;;
13455;SDS011;6800;50.940;6.940;2024-01-11T18:12:57;36.60;;;24.43;;
13455;SDS011;6800;50.940;6.940;2024-01-11T18:16:59;29.70;;;22.87;;
13455;SDS011;6800;50.940;6.940;2024-01-11T18:21:01;33.03;;;24.07;;
13455;SDS011;6800;50.940;6.940;2024-01-11T18:25:03;29.23;;;24.70;;
13455;SDS011;6800;50.940;6.940;2024-01-11T18:29:05;34.60;;;23.93;;
13455;SDS011;6800;50.940;6.940;2024-01-11T18:33:08;32.03;;;23.10;;
13455;SDS011;6800;50.940;6.940;2024-01-11T18:37:10;37.60;;;25.03;;
13455;SDS011;6800;50.940;6.940;2024-01-11T18:41:13;36.27;;;24.30;;
13455;SDS011;6800;50.940;6.940;2024-01-11T18:45:14;35.50;;;25.93;;
13455;SDS011;6800;50.940;6.940;2024-01-11T18:49:16;33.47;;;24.07;;
13455;SDS011;6800;50.940;6.940;2024-01-11T18:53:21;30.87;;;23.77;;
13455;SDS011;6800;50.940;6.940;2024-01-11T18:57:23;31.63;;;24.33;;
13455;SDS011;6800;50.940;6.940;2024-01-11T19:01:26;34.50;;;25.23;;
13455;SDS011;6800;50.940;6.940;2024-01-11T19:05:31;34.63;;;24.33;;
13455;SDS011;6800;50.940;6.940;2024-01-11T19:09:35;30.43;;;24.40;;
13455;SDS011;6800;50.940;6.940;2024-01-11T19:13:37;31.60;;;23.67;;
13455;SDS011;6800;50.940;6.940;2024-01-11T19:17:38;32.90;;;24.83;;
13455;SDS011;6800;50.940;6.940;2024-01-11T19:21:41;31.17;;;24.27;;
13455;SDS011;6800;50.940;6.940;2024-01-11T19:25:44;31.20;;;23.27;;
13455;SDS011;6800;50.940;6.940;2024-01-11T19:29:47;33.37;;;24.43;;
13455;SDS011;6800;50.940;6.940;2024-01-11T19:33:49;29.00;;;22.53;;
13455;SDS011;6800;50.940;6.940;2024-01-11T19:38:00;30.17;;;23.30;;
13455;SDS011;6800;50.940;6.940;2024-01-11T19:42:01;26.97;;;20.37;;
13455;SDS011;6800;50.940;6.940;2024-01-11T19:46:03;22.87;;;19.13;;
13455;SDS011;6800;50.940;6.940;2024-01-11T19:50:07;23.03;;;17.87;;
13455;SDS011;6800;50.940;6.940;2024-01-11T19:54:10;26.83;;;18.43;;
13455;SDS011;6800;50.940;6.940;2024-01-11T19:58:12;26.03;;;19.50;;
13455;SDS011;6800;50.940;6.940;2024-01-11T20:02:14;22.43;;;19.03;;
13455;SDS011;6800;50.940;6.940;2024-01-11T20:06:18;26.97;;;19.93;;
13455;SDS011;6800;50.940;6.940;2024-01-11T20:10:19;22.83;;;17.30;;
13455;SDS011;6800;50.940;6.940;2024-01-11T20:14:22;21.83;;;16.63;;
13455;SDS011;6800;50.940;6.940;2024-01-11T20:18:24;20.40;;;16.10;;
13455;SDS011;6800;50.940;6.940;2024-01-11T20:22:29;21.47;;;16.83;;
13455;SDS011;6800;50.940;6.940;2024-01-11T20:26:33;27.17;;;22.10;;
13455;SDS011;6800;50.940;6.940;2024-01-11T20:30:36;26.60;;;21.70;;
13455;SDS011;6800;50.940;6.940;2024-01-11T20:34:39;28.27;;;22.77;;
13455;SDS011;6800;50.940;6.940;2024-01-11T20:38:40;29.07;;;21.73;;
13455;SDS011;6800;50.940;6.940;2024-01-11T20:42:42;32.07;;;22.27;;
13455;SDS011;6800;50.940;6.940;2024-01-11T20:46:44;28.07;;;21.53;;
13455;SDS011;6800;50.940;6.940;2024-01-11T20:50:46;29.23;;;21.87;;
13455;SDS011;6800;50.940;6.940;2024-01-11T20:54:49;29.13;;;21.50;;
13455;SDS011;6800;50.940;6.940;2024-01-11T20:58:53;29.50;;;20.63;;
13455;SDS011;6800;50.940;6.940;2024-01-11T21:02:56;27.10;;;21.27;;
13455;SDS011;6800;50.940;6.940;2024-01-11T21:06:58;25.43;;;20.03;;
13455;SDS011;6800;50.940;6.940;2024-01-11T21:11:05;31.37;;;23.37;;
13455;SDS011;6800;50.940;6.940;2024-01-11T21:15:11;26.67;;;21.37;;
13455;SDS011;6800;50.940;6.940;2024-01-11T21:19:15;30.73;;;22.20;;
13455;SDS011;6800;50.940;6.940;2024-01-11T21:23:17;33.37;;;23.07;;
13455;SDS011;6800;50.940;6.940;2024-01-11T21:27:18;25.70;;;21.13;;
13455;SDS011;6800;50.940;6.940;2024-01-11T21:31:21;29.73;;;21.93;;
13455;SDS011;6800;50.940;6.940;2024-01-11T21:35:26;27.97;;;20.77;;
13455;SDS011;6800;50.940;6.940;2024-01-11T21:39:28;30.63;;;23.07;;
13455;SDS011;6800;50.940;6.940;2024-01-11T21:43:30;33.10;;;22.20;;
13455;SDS011;6800;50.940;6.940;2024-01-11T21:47:33;25.83;;;22.07;;
13455;SDS011;6800;50.940;6.940;2024-01-11T21:51:35;25.07;;;20.67;;
13455;SDS011;6800;50.940;6.940;2024-01-11T21:55:36;29.43;;;22.60;;
13455;SDS011;6800;50.940;6.940;2024-01-11T21:59:41;29.73;;;20.83;;
13455;SDS011;6800;50.940;6.940;2024-01-11T22:03:46;27.83;;;21.53;;
13455;SDS011;6800;50.940;6.940;2024-01-11T22:07:50;27.07;;;21.13;;
13455;SDS011;6800;50.940;6.940;2024-01-11T22:11:55;32.07;;;22.87;;
13455;SDS011;6800;50.940;6.940;2024-01-11T22:15:56;29.97;;;22.00;;
13455;SDS011;6800;50.940;6.940;2024-01-11T22:19:58;26.73;;;21.20;;
13455;SDS011;6800;50.940;6.940;2024-01-11T22:24:01;30.60;;;22.07;;
13455;SDS011;6800;50.940;6.940;2024-01-11T22:28:02;28.50;;;22.43;;
13455;SDS011;6800;50.940;6.940;2024-01-11T22:32:05;29.00;;;21.57;;
13455;SDS011;6800;50.940;6.940;2024-01-11T22:36:09;32.33;;;23.27;;
13455;SDS011;6800;50.940;6.940;2024-01-11T22:40:11;29.43;;;22.03;;
13455;SDS011;6800;50.940;6.940;2024-01-11T22:44:21;29.70;;;22.50;;
13455;SDS011;6800;50.940;6.940;2024-01-11T22:48:23;29.00;;;21.73;;
13455;SDS011;6800;50.940;6.940;2024-01-11T22:52:25;29.27;;;22.23;;
13455;SDS011;6800;50.940;6.940;2024-01-11T22:56:32;30.70;;;22.20;;
13455;SDS011;6800;50.940;6.940;2024-01-11T23:00:37;29.13;;;22.07;;
13455;SDS011;6800;50.940;6.940;2024-01-11T23:04:41;35.13;;;24.17;;
13455;SDS011;6800;50.940;6.940;2024-01-11T23:08:44;31.80;;;23.97;;
13455;SDS011;6800;50.940;6.940;2024-01-11T23:12:46;28.30;;;22.90;;
13455;SDS011;6800;50.940;6.940;2024-01-11T23:16:49;30.93;;;23.67;;
13455;SDS011;6800;50.940;6.940;2024-01-11T23:20:51;34.37;;;23.93;;
13455;SDS011;6800;50.940;6.940;2024-01-11T23:24:53;33.77;;;24.57;;
13455;SDS011;6800;50.940;6.940;2024-01-11T23:28:56;31.53;;;23.87;;
13455;SDS011;6800;50.940;6.940;2024-01-11T23:33:01;30.07;;;23.57;;
13455;SDS011;6800;50.940;6.940;2024-01-11T23:37:03;34.57;;;24.80;;
13455;SDS011;6800;50.940;6.940;2024-01-11T23:41:09;34.87;;;24.57;;
13455;SDS011;6800;50.940;6.940;2024-01-11T23:45:11;35.03;;;26.03;;
13455;SDS011;6800;50.940;6.940;2024-01-11T23:49:13;31.13;;;24.47;;
13455;SDS011;6800;50.940;6.940;2024-01-11T23:53:15;36.13;;;25.97;;
13455;SDS011;6800;50.940;6.940;2024-01-11T23:57:17;36.87;;;25.23;;
